Time;durP1;ratioP1;P1;durP2;ratioP2;P2;SDS_P1;SDS_P2;PMS_P1;PMS_P2;Temp;Humidity;BMP_temperature;BMP_pressure;BME280_temperature;BME280_humidity;BME280_pressure;Samples;Min_cycle;Max_cycle;Signal;HPM_P1;HPM_P2
2023/10/26 00:06:26;;;;;;;;;;;10.80;99.90;;;;;;6693077;88;20569;-79
2023/10/26 00:16:26;;;;;;;;;;;10.70;99.90;;;;;;6685172;88;20204;-78
2023/10/26 00:26:27;;;;;;;;;;;10.60;99.90;;;;;;6687174;88;20382;-78
2023/10/26 00:36:27;;;;;;;;;;;10.60;99.90;;;;;;6686276;88;20435;-77
2023/10/26 00:46:28;;;;;;;;;;;10.60;99.90;;;;;;6678719;89;20120;-78
2023/10/26 00:56:28;;;;;;;;;;;10.60;99.90;;;;;;6674677;88;20178;-78
2023/10/26 01:06:29;;;;;;;;;;;10.60;99.90;;;;;;6689965;88;20074;-78
2023/10/26 01:16:30;;;;;;;;;;;10.60;99.90;;;;;;6681344;88;20500;-77
2023/10/26 01:26:30;;;;;;;;;;;10.60;99.90;;;;;;6681612;88;20060;-78
2023/10/26 01:36:31;;;;;;;;;;;10.50;99.90;;;;;;6693197;88;20066;-78
2023/10/26 01:46:31;;;;;;;;;;;10.50;99.90;;;;;;6691502;88;20080;-78
2023/10/26 01:56:32;;;;;;;;;;;10.50;99.90;;;;;;6690536;88;20114;-78
2023/10/26 02:06:32;;;;;;;;;;;10.50;99.90;;;;;;6687483;88;20126;-79
2023/10/26 02:16:32;;;;;;;;;;;10.50;99.90;;;;;;6686601;88;20189;-78
2023/10/26 02:26:33;;;;;;;;;;;10.50;99.90;;;;;;6688832;88;20075;-78
2023/10/26 02:36:33;;;;;;;;;;;10.60;99.90;;;;;;6686128;88;20470;-78
2023/10/26 02:46:34;;;;;;;;;;;10.50;99.90;;;;;;6695471;88;20064;-78
2023/10/26 02:56:34;;;;;;;;;;;10.50;99.90;;;;;;6698645;77;20262;-75
2023/10/26 03:06:38;;;;;;;;;;;10.50;99.90;;;;;;6696858;88;20141;-76
2023/10/26 03:16:38;;;;;;;;;;;10.50;99.90;;;;;;6697975;88;20109;-76
2023/10/26 03:26:39;;;;;;;;;;;10.50;99.90;;;;;;6698950;88;20179;-76
2023/10/26 03:36:39;;;;;;;;;;;10.50;99.90;;;;;;6689163;88;20069;-76
2023/10/26 03:46:40;;;;;;;;;;;10.50;99.90;;;;;;6696943;88;20068;-76
2023/10/26 03:56:40;;;;;;;;;;;10.50;99.90;;;;;;6690632;88;20071;-76
2023/10/26 04:06:41;;;;;;;;;;;10.50;99.90;;;;;;6692414;88;20072;-76
2023/10/26 04:16:41;;;;;;;;;;;10.50;99.90;;;;;;6701529;88;20162;-76
2023/10/26 04:26:42;;;;;;;;;;;10.50;99.90;;;;;;6697686;88;20056;-76
2023/10/26 04:36:42;;;;;;;;;;;10.40;99.90;;;;;;6696325;88;20056;-75
2023/10/26 04:46:43;;;;;;;;;;;10.50;99.90;;;;;;6698094;88;20090;-76
2023/10/26 04:56:43;;;;;;;;;;;10.50;99.90;;;;;;6698375;88;20094;-76
2023/10/26 05:06:44;;;;;;;;;;;10.40;99.90;;;;;;6700054;88;20063;-76
2023/10/26 05:16:44;;;;;;;;;;;10.40;99.90;;;;;;6702413;88;20069;-76
2023/10/26 05:26:45;;;;;;;;;;;10.50;99.90;;;;;;6709618;88;20127;-77
2023/10/26 05:36:45;;;;;;;;;;;10.40;99.90;;;;;;6702500;88;20542;-78
2023/10/26 05:46:45;;;;;;;;;;;10.40;99.90;;;;;;6696686;88;20067;-77
2023/10/26 05:56:46;;;;;;;;;;;10.40;99.90;;;;;;6695704;88;20060;-77
2023/10/26 06:06:46;;;;;;;;;;;10.40;99.90;;;;;;6694339;88;20134;-76
2023/10/26 06:16:47;;;;;;;;;;;10.30;99.90;;;;;;6700631;88;20111;-76
2023/10/26 06:26:47;;;;;;;;;;;10.40;99.90;;;;;;6699863;88;20059;-77
2023/10/26 06:36:49;;;;;;;;;;;10.40;99.90;;;;;;6697645;88;20060;-76
2023/10/26 06:46:49;;;;;;;;;;;10.40;99.90;;;;;;6694142;88;20085;-76
2023/10/26 06:56:49;;;;;;;;;;;10.40;99.90;;;;;;6697753;88;20064;-76
2023/10/26 07:06:50;;;;;;;;;;;10.40;99.90;;;;;;6701166;88;20043;-76
2023/10/26 07:16:51;;;;;;;;;;;10.40;99.90;;;;;;6695804;88;20054;-76
2023/10/26 07:26:51;;;;;;;;;;;10.40;99.90;;;;;;6698431;88;20496;-76
2023/10/26 07:36:52;;;;;;;;;;;10.40;99.90;;;;;;6698181;88;20519;-77
2023/10/26 07:46:52;;;;;;;;;;;10.60;99.90;;;;;;6696550;88;20052;-77
2023/10/26 07:56:53;;;;;;;;;;;10.60;99.90;;;;;;6698857;88;20067;-78
2023/10/26 08:06:53;;;;;;;;;;;10.60;99.90;;;;;;6700332;88;20104;-76
2023/10/26 08:16:55;;;;;;;;;;;10.80;99.90;;;;;;6699682;88;20084;-77
2023/10/26 08:26:55;;;;;;;;;;;10.90;99.90;;;;;;6703368;88;20546;-77
2023/10/26 08:36:56;;;;;;;;;;;11.00;99.90;;;;;;6700866;88;20118;-77
2023/10/26 08:47:02;;;;;;;;;;;11.30;99.90;;;;;;6700260;88;20171;-77
2023/10/26 08:57:08;;;;;;;;;;;11.30;99.90;;;;;;6700493;88;20067;-76
2023/10/26 09:07:09;;;;;;;;;;;11.30;99.90;;;;;;6694819;88;20109;-77
2023/10/26 09:17:24;;;;;;;;;;;11.30;99.90;;;;;;6692796;88;20083;-76
2023/10/26 09:27:24;;;;;;;;;;;11.60;99.90;;;;;;6692788;88;20559;-77
2023/10/26 09:37:24;;;;;;;;;;;12.00;99.90;;;;;;6693407;88;20079;-78
2023/10/26 09:47:25;;;;;;;;;;;12.20;99.90;;;;;;6693478;88;20532;-78
2023/10/26 09:57:28;;;;;;;;;;;12.40;99.90;;;;;;6705855;88;20113;-78
2023/10/26 10:07:47;;;;;;;;;;;12.20;99.90;;;;;;6704375;88;20060;-78
2023/10/26 10:17:48;;;;;;;;;;;12.20;99.90;;;;;;6700044;88;20504;-78
2023/10/26 10:27:49;;;;;;;;;;;12.70;99.90;;;;;;6704308;88;20072;-78
2023/10/26 10:38:08;;;;;;;;;;;13.40;99.90;;;;;;6703468;88;20068;-77
2023/10/26 10:48:09;;;;;;;;;;;13.70;99.90;;;;;;6695678;88;20541;-77
2023/10/26 10:58:09;;;;;;;;;;;13.60;99.90;;;;;;6695512;88;20106;-77
2023/10/26 11:08:10;;;;;;;;;;;14.60;99.90;;;;;;6694769;88;20078;-77
2023/10/26 11:18:11;;;;;;;;;;;14.20;99.90;;;;;;6696867;88;20055;-76
2023/10/26 11:28:11;;;;;;;;;;;14.00;99.90;;;;;;6699167;88;20052;-78
2023/10/26 11:38:12;;;;;;;;;;;13.90;99.90;;;;;;6697587;88;20500;-77
2023/10/26 11:48:12;;;;;;;;;;;14.10;99.90;;;;;;6698513;88;20055;-77
2023/10/26 11:58:12;;;;;;;;;;;13.80;99.90;;;;;;6698414;88;20075;-77
2023/10/26 12:08:13;;;;;;;;;;;13.20;99.90;;;;;;6697518;88;20171;-76
2023/10/26 12:18:13;;;;;;;;;;;13.00;99.90;;;;;;6703256;88;20080;-77
2023/10/26 12:28:15;;;;;;;;;;;12.80;99.90;;;;;;6706151;88;20071;-78
2023/10/26 12:38:19;;;;;;;;;;;12.80;99.90;;;;;;6701951;88;20705;-78
2023/10/26 12:48:19;;;;;;;;;;;12.80;99.90;;;;;;6698868;88;20106;-77
2023/10/26 12:58:20;;;;;;;;;;;12.80;99.90;;;;;;6701648;88;20193;-77
2023/10/26 13:08:20;;;;;;;;;;;12.50;99.90;;;;;;6699336;88;20072;-77
2023/10/26 13:18:21;;;;;;;;;;;12.60;99.90;;;;;;6697632;88;20544;-77
2023/10/26 13:28:21;;;;;;;;;;;12.60;99.90;;;;;;6702657;88;20051;-78
2023/10/26 13:38:22;;;;;;;;;;;12.40;99.90;;;;;;6704136;88;20230;-79
2023/10/26 13:48:23;;;;;;;;;;;12.10;99.90;;;;;;6705814;88;20616;-79
2023/10/26 13:58:24;;;;;;;;;;;11.90;99.90;;;;;;6702051;88;20067;-78
2023/10/26 14:08:24;;;;;;;;;;;11.90;99.90;;;;;;6702719;88;20083;-78
2023/10/26 14:18:25;;;;;;;;;;;11.90;99.90;;;;;;6703451;88;20081;-78
2023/10/26 14:28:25;;;;;;;;;;;11.90;99.90;;;;;;6705117;88;20107;-77
2023/10/26 14:38:26;;;;;;;;;;;11.60;99.90;;;;;;6711970;88;20216;-77
2023/10/26 14:48:26;;;;;;;;;;;11.50;99.90;;;;;;6704763;88;20179;-77
2023/10/26 14:58:27;;;;;;;;;;;11.50;99.90;;;;;;6700963;88;20132;-78
2023/10/26 15:08:27;;;;;;;;;;;11.50;99.90;;;;;;6704244;88;20589;-78
2023/10/26 15:18:28;;;;;;;;;;;11.50;99.90;;;;;;6704400;88;20081;-77
2023/10/26 15:28:28;;;;;;;;;;;11.50;99.90;;;;;;6702897;88;20536;-78
2023/10/26 15:38:29;;;;;;;;;;;11.60;99.90;;;;;;6702165;88;20107;-78
2023/10/26 15:48:33;;;;;;;;;;;11.60;99.90;;;;;;6705254;88;20092;-79
2023/10/26 15:58:33;;;;;;;;;;;11.50;99.90;;;;;;6705456;88;20117;-77
2023/10/26 16:08:34;;;;;;;;;;;11.50;99.90;;;;;;6702463;88;20059;-77
2023/10/26 16:18:35;;;;;;;;;;;11.50;99.90;;;;;;6705589;88;20499;-79
2023/10/26 16:28:37;;;;;;;;;;;11.40;99.90;;;;;;6703855;88;20110;-80
2023/10/26 16:38:37;;;;;;;;;;;11.50;99.90;;;;;;6706683;88;21086;-80
2023/10/26 16:48:38;;;;;;;;;;;11.50;99.90;;;;;;6704879;88;20056;-79
2023/10/26 16:58:38;;;;;;;;;;;11.50;99.90;;;;;;6702998;88;20522;-78
2023/10/26 17:08:39;;;;;;;;;;;11.50;99.90;;;;;;6704693;88;20113;-78
2023/10/26 17:18:39;;;;;;;;;;;11.50;99.90;;;;;;6701639;88;20186;-79
2023/10/26 17:28:40;;;;;;;;;;;11.50;99.90;;;;;;6697761;88;20052;-78
2023/10/26 17:38:41;;;;;;;;;;;11.50;99.90;;;;;;6703882;88;20071;-78
2023/10/26 17:48:41;;;;;;;;;;;11.50;99.90;;;;;;6701379;88;20189;-78
2023/10/26 17:58:42;;;;;;;;;;;11.50;99.90;;;;;;6701972;88;20072;-78
2023/10/26 18:08:42;;;;;;;;;;;11.40;99.90;;;;;;6701285;88;20056;-78
2023/10/26 18:18:43;;;;;;;;;;;11.50;99.90;;;;;;6704682;88;20197;-79
2023/10/26 18:28:43;;;;;;;;;;;11.40;99.90;;;;;;6700251;88;20071;-79
2023/10/26 18:38:44;;;;;;;;;;;11.50;99.90;;;;;;6703051;88;20074;-79
2023/10/26 18:48:45;;;;;;;;;;;11.50;99.90;;;;;;6704516;88;20083;-79
2023/10/26 18:58:45;;;;;;;;;;;11.40;99.90;;;;;;6703744;88;20079;-79
2023/10/26 19:08:46;;;;;;;;;;;11.30;99.90;;;;;;6708901;88;20089;-79
2023/10/26 19:18:46;;;;;;;;;;;11.20;99.90;;;;;;6718058;88;20729;-79
2023/10/26 19:28:47;;;;;;;;;;;11.20;99.90;;;;;;6704944;88;20219;-79
2023/10/26 19:44:52;;;;;;;;;;;11.20;99.90;;;;;;6782750;86;20080;-79
2023/10/26 19:54:53;;;;;;;;;;;11.10;99.90;;;;;;6781238;87;20099;-80
2023/10/26 20:04:54;;;;;;;;;;;11.20;99.90;;;;;;6782986;87;20452;-80
2023/10/26 20:14:54;;;;;;;;;;;11.20;99.90;;;;;;6781642;87;20064;-80
2023/10/26 20:24:54;;;;;;;;;;;11.30;99.90;;;;;;6784792;87;20181;-80
2023/10/26 20:34:55;;;;;;;;;;;11.20;99.90;;;;;;6776992;87;20045;-77
2023/10/26 20:44:56;;;;;;;;;;;11.10;99.90;;;;;;6781461;87;20066;-78
2023/10/26 20:54:56;;;;;;;;;;;11.10;99.90;;;;;;6772602;87;20135;-79
2023/10/26 21:04:57;;;;;;;;;;;11.00;99.90;;;;;;6768522;87;20102;-80
2023/10/26 21:25:08;;;;;;;;;;;11.00;99.90;;;;;;6765575;88;20102;-80
2023/10/26 21:35:08;;;;;;;;;;;11.00;99.90;;;;;;6763731;88;20086;-79
2023/10/26 21:45:09;;;;;;;;;;;10.90;99.90;;;;;;6764682;88;20064;-79
2023/10/26 21:55:10;;;;;;;;;;;10.90;99.90;;;;;;6763831;88;20102;-81
2023/10/26 22:05:10;;;;;;;;;;;11.10;99.90;;;;;;6767164;88;20046;-80
2023/10/26 22:15:13;;;;;;;;;;;11.10;99.90;;;;;;6763865;88;20069;-79
2023/10/26 22:25:14;;;;;;;;;;;11.00;99.90;;;;;;6746391;88;20136;-80
2023/10/26 22:35:15;;;;;;;;;;;10.90;99.90;;;;;;6745127;88;20104;-78
2023/10/26 22:45:18;;;;;;;;;;;10.60;99.90;;;;;;6744889;88;20053;-79
2023/10/26 22:55:18;;;;;;;;;;;10.60;99.90;;;;;;6750402;88;20606;-79
2023/10/26 23:05:19;;;;;;;;;;;10.60;99.90;;;;;;6746084;88;20132;-80
2023/10/26 23:15:19;;;;;;;;;;;10.50;99.90;;;;;;6745932;88;21304;-80
2023/10/26 23:25:20;;;;;;;;;;;10.40;99.90;;;;;;6744318;88;20059;-80
2023/10/26 23:35:20;;;;;;;;;;;10.20;99.90;;;;;;6744217;88;20067;-79
2023/10/26 23:45:21;;;;;;;;;;;10.10;99.90;;;;;;6744810;88;20124;-80
2023/10/26 23:55:21;;;;;;;;;;;10.10;99.90;;;;;;6746860;88;20050;-79
